createdAt,value
2022-11-01T00:02:10.962Z,12.35
2022-11-01T00:04:38.377Z,12.35
2022-11-01T00:07:06.268Z,12.35
2022-11-01T00:09:33.502Z,11.72
2022-11-01T00:12:00.685Z,12.31
2022-11-01T00:14:27.996Z,12.31
2022-11-01T00:16:55.611Z,12.25
2022-11-01T00:19:22.951Z,12.20
2022-11-01T00:21:50.271Z,12.23
2022-11-01T00:24:17.444Z,12.20
2022-11-01T00:26:44.762Z,12.01
2022-11-01T00:29:12.939Z,12.24
2022-11-01T00:31:40.592Z,12.04
2022-11-01T00:34:07.786Z,12.18
2022-11-01T00:36:35.851Z,12.16
2022-11-01T00:39:03.702Z,12.07
2022-11-01T00:41:30.979Z,12.21
2022-11-01T00:43:58.373Z,12.21
2022-11-01T00:46:25.607Z,12.18
2022-11-01T00:48:52.869Z,12.22
2022-11-01T00:51:19.996Z,12.02
2022-11-01T00:53:47.144Z,12.20
2022-11-01T00:56:14.556Z,12.15
2022-11-01T00:58:41.855Z,12.07
2022-11-01T01:01:09.364Z,12.22
2022-11-01T01:03:36.893Z,12.20
2022-11-01T01:06:04.731Z,12.20
2022-11-01T01:08:32.020Z,11.86
2022-11-01T01:10:59.320Z,11.90
2022-11-01T01:13:26.709Z,12.13
2022-11-01T01:15:53.871Z,12.09
2022-11-01T01:18:21.172Z,12.09
2022-11-01T01:20:48.578Z,11.94
2022-11-01T01:23:16.112Z,11.99
2022-11-01T01:25:43.524Z,12.06
2022-11-01T01:28:11.220Z,12.08
2022-11-01T01:30:41.843Z,11.96
2022-11-01T01:33:10.147Z,11.84
2022-11-01T01:35:39.360Z,12.07
2022-11-01T01:38:07.307Z,12.06
2022-11-01T01:40:35.117Z,12.06
2022-11-01T01:43:02.620Z,12.08
2022-11-01T01:45:41.458Z,12.03
2022-11-01T01:48:11.592Z,12.04
2022-11-01T01:50:47.762Z,12.04
2022-11-01T01:53:28.020Z,11.92
2022-11-01T01:56:01.363Z,11.98
2022-11-01T01:58:50.704Z,11.87
2022-11-01T02:01:18.689Z,11.82
2022-11-01T02:03:46.132Z,11.78
2022-11-01T02:06:18.831Z,12.01
2022-11-01T02:08:53.321Z,12.02
2022-11-01T02:11:22.207Z,12.04
2022-11-01T02:13:49.774Z,12.03
2022-11-01T02:16:30.721Z,12.05
2022-11-01T02:19:06.695Z,12.02
2022-11-01T02:21:46.899Z,11.98
2022-11-01T02:24:38.372Z,11.97
2022-11-01T02:27:12.660Z,11.93
2022-11-01T02:29:55.073Z,11.94
2022-11-01T02:32:27.906Z,11.92
2022-11-01T02:35:10.071Z,11.90
2022-11-01T02:37:44.569Z,11.90
2022-11-01T02:40:28.104Z,11.81
2022-11-01T02:43:01.639Z,11.88
2022-11-01T02:45:37.311Z,11.59
2022-11-01T02:48:05.689Z,11.89
2022-11-01T02:50:39.201Z,11.91
2022-11-01T02:53:07.585Z,11.85
2022-11-01T02:55:36.453Z,11.73
2022-11-01T02:58:20.664Z,11.86
2022-11-01T03:00:47.904Z,11.66
2022-11-01T03:03:32.782Z,11.85
2022-11-01T03:06:05.986Z,11.84
2022-11-01T03:08:38.545Z,11.62
2022-11-01T03:11:18.081Z,11.71
2022-11-01T03:13:51.956Z,11.79
2022-11-01T03:16:48.775Z,11.74
2022-11-01T03:19:27.920Z,11.77
2022-11-01T03:22:17.015Z,11.76
2022-11-01T03:25:02.525Z,11.75
2022-11-01T03:27:36.569Z,11.74
2022-11-01T03:30:08.499Z,11.75
2022-11-01T03:32:43.788Z,11.77
2022-11-01T03:35:16.481Z,11.60
2022-11-01T03:37:45.886Z,11.72
2022-11-01T03:40:16.684Z,11.54
2022-11-01T03:42:51.221Z,11.71
2022-11-01T03:47:52.047Z,11.70
2022-11-01T03:50:20.876Z,11.72
2022-11-01T03:52:48.663Z,11.68
2022-11-01T03:55:20.881Z,11.73
2022-11-01T03:57:52.941Z,11.73
2022-11-01T04:00:22.875Z,11.71
2022-11-01T04:02:51.532Z,11.71
2022-11-01T04:05:20.715Z,11.70
2022-11-01T04:07:48.452Z,11.70
2022-11-01T04:10:16.165Z,11.70
2022-11-01T04:12:46.475Z,11.69
2022-11-01T04:15:33.070Z,11.69
2022-11-01T04:18:37.279Z,11.67
2022-11-01T04:21:08.657Z,11.64
2022-11-01T04:23:36.202Z,11.65
2022-11-01T04:26:05.496Z,11.64
2022-11-01T04:28:32.607Z,11.15
2022-11-01T04:30:59.860Z,11.58
2022-11-01T04:33:27.138Z,11.54
2022-11-01T04:35:54.374Z,10.92
2022-11-01T04:38:21.631Z,11.57
2022-11-01T04:40:49.322Z,11.35
2022-11-01T04:43:16.828Z,11.33
2022-11-01T04:45:44.141Z,11.64
2022-11-01T04:48:14.084Z,11.64
2022-11-01T04:50:42.270Z,11.59
2022-11-01T04:53:10.399Z,11.40
2022-11-01T04:55:38.008Z,11.59
2022-11-01T04:58:06.824Z,11.51
2022-11-01T05:00:34.578Z,11.61
2022-11-01T05:03:07.516Z,11.60
2022-11-01T05:05:35.933Z,11.60
2022-11-01T05:08:05.446Z,11.63
2022-11-01T05:10:34.273Z,11.60
2022-11-01T05:13:03.001Z,11.60
2022-11-01T05:15:30.435Z,11.29
2022-11-01T05:17:59.974Z,11.61
2022-11-01T05:20:27.218Z,11.61
2022-11-01T05:23:02.129Z,11.57
2022-11-01T05:25:32.729Z,11.56
2022-11-01T05:28:08.181Z,11.48
2022-11-01T05:30:36.891Z,11.54
2022-11-01T05:33:05.583Z,11.56
2022-11-01T05:35:34.574Z,11.54
2022-11-01T05:38:03.648Z,11.57
2022-11-01T05:40:31.971Z,11.54
2022-11-01T05:42:59.918Z,11.48
2022-11-01T05:45:27.324Z,11.06
2022-11-01T05:47:54.504Z,11.12
2022-11-01T05:50:21.749Z,11.51
2022-11-01T05:52:50.372Z,11.51
2022-11-01T05:55:17.867Z,11.48
2022-11-01T05:57:45.001Z,11.46
2022-11-01T06:00:12.974Z,11.39
2022-11-01T06:02:40.785Z,11.34
2022-11-01T06:05:09.005Z,11.42
2022-11-01T06:07:37.073Z,11.40
2022-11-01T06:10:05.706Z,11.37
2022-11-01T06:12:32.967Z,11.35
2022-11-01T06:15:00.046Z,11.35
2022-11-01T06:17:27.133Z,11.36
2022-11-01T06:19:54.187Z,11.27
2022-11-01T06:22:21.624Z,11.31
2022-11-01T06:24:48.769Z,11.22
2022-11-01T06:27:16.044Z,11.17
2022-11-01T06:29:43.523Z,11.11
2022-11-01T06:32:10.698Z,11.26
2022-11-01T06:34:42.277Z,11.23
2022-11-01T06:37:12.074Z,11.20
2022-11-01T06:39:39.505Z,11.20
2022-11-01T06:42:06.699Z,11.21
2022-11-01T06:44:33.772Z,11.18
2022-11-01T06:47:01.001Z,11.16
2022-11-01T06:49:29.741Z,11.19
2022-11-01T06:51:56.994Z,11.16
2022-11-01T06:54:24.399Z,11.19
2022-11-01T06:56:51.521Z,10.89
2022-11-01T06:59:18.941Z,10.54
2022-11-01T07:01:46.623Z,11.16
2022-11-01T07:04:13.805Z,11.24
2022-11-01T07:06:41.221Z,11.14
2022-11-01T07:09:08.231Z,11.11
2022-11-01T07:11:35.344Z,11.29
2022-11-01T07:14:02.964Z,11.30
2022-11-01T07:16:30.233Z,11.29
2022-11-01T07:18:57.548Z,11.16
2022-11-01T07:21:24.997Z,11.30
2022-11-01T07:23:54.456Z,11.26
2022-11-01T07:26:22.507Z,11.36
2022-11-01T07:28:49.782Z,11.17
2022-11-01T07:31:16.872Z,11.31
2022-11-01T07:33:44.063Z,11.43
2022-11-01T07:36:11.366Z,11.45
2022-11-01T07:38:38.829Z,11.20
2022-11-01T07:41:06.392Z,11.41
2022-11-01T07:43:35.998Z,11.45
2022-11-01T07:46:07.575Z,11.50
2022-11-01T07:48:37.147Z,11.50
2022-11-01T07:51:06.397Z,11.51
2022-11-01T07:53:34.504Z,11.32
2022-11-01T07:56:02.874Z,11.58
2022-11-01T07:58:30.066Z,11.48
2022-11-01T08:00:57.754Z,11.63
2022-11-01T08:03:25.041Z,11.64
2022-11-01T08:05:52.641Z,11.68
2022-11-01T08:08:20.334Z,11.71
2022-11-01T08:10:47.694Z,11.56
2022-11-01T08:13:23.275Z,11.76
2022-11-01T08:15:52.432Z,11.79
2022-11-01T08:18:24.911Z,11.53
2022-11-01T08:20:52.983Z,11.78
2022-11-01T08:23:20.856Z,11.84
2022-11-01T08:25:48.076Z,11.88
2022-11-01T08:28:18.205Z,11.91
2022-11-01T08:30:47.958Z,11.97
2022-11-01T08:33:15.301Z,11.97
2022-11-01T08:35:49.847Z,12.01
2022-11-01T08:38:17.713Z,11.98
2022-11-01T08:40:44.925Z,12.02
2022-11-01T08:43:12.056Z,12.06
2022-11-01T08:45:39.595Z,12.09
2022-11-01T08:48:07.024Z,12.13
2022-11-01T08:50:35.088Z,12.13
2022-11-01T08:53:11.659Z,12.15
2022-11-01T08:55:39.411Z,12.16
2022-11-01T08:58:07.617Z,12.21
2022-11-01T09:00:35.946Z,12.23
2022-11-01T09:03:03.666Z,12.18
2022-11-01T09:05:31.752Z,12.28
2022-11-01T09:08:00.742Z,12.32
2022-11-01T09:10:29.506Z,12.37
2022-11-01T09:12:57.985Z,12.37
2022-11-01T09:15:25.318Z,12.36
2022-11-01T09:17:53.266Z,12.37
2022-11-01T09:20:20.556Z,11.91
2022-11-01T09:22:51.771Z,11.94
2022-11-01T09:25:18.925Z,12.41
2022-11-01T09:27:46.014Z,12.46
2022-11-01T09:30:13.448Z,12.49
2022-11-01T09:32:40.713Z,12.50
2022-11-01T09:35:09.274Z,12.53
2022-11-01T09:37:36.481Z,12.60
2022-11-01T09:40:04.705Z,12.63
2022-11-01T09:42:40.204Z,12.62
2022-11-01T09:45:20.842Z,12.71
2022-11-01T09:47:53.638Z,12.63
2022-11-01T09:50:37.422Z,12.69
2022-11-01T09:53:20.642Z,12.80
2022-11-01T09:55:52.085Z,12.86
2022-11-01T09:58:43.556Z,12.88
2022-11-01T10:01:23.711Z,12.90
2022-11-01T10:04:15.077Z,12.92
2022-11-01T10:07:02.226Z,12.92
2022-11-01T10:09:55.819Z,12.96
2022-11-01T10:13:12.041Z,12.89
2022-11-01T10:15:59.181Z,13.02
2022-11-01T10:18:29.346Z,13.06
2022-11-01T10:21:14.232Z,13.05
2022-11-01T10:23:50.577Z,13.07
2022-11-01T10:26:28.084Z,13.02
2022-11-01T10:29:37.407Z,13.06
2022-11-01T10:32:09.649Z,13.09
2022-11-01T10:34:40.094Z,13.06
2022-11-01T10:37:14.986Z,13.06
2022-11-01T10:39:55.410Z,13.07
2022-11-01T10:42:29.212Z,13.12
2022-11-01T10:45:00.766Z,12.95
2022-11-01T10:47:28.609Z,13.08
2022-11-01T10:50:14.812Z,13.03
2022-11-01T10:52:55.957Z,13.12
2022-11-01T10:55:34.969Z,13.11
2022-11-01T10:58:07.329Z,12.93
2022-11-01T11:00:38.469Z,13.00
2022-11-01T11:03:27.903Z,13.06
2022-11-01T11:05:56.946Z,12.83
2022-11-01T11:08:25.658Z,13.08
2022-11-01T11:10:53.136Z,13.07
2022-11-01T11:13:24.095Z,13.08
2022-11-01T11:16:00.830Z,13.06
2022-11-01T11:18:31.653Z,13.04
2022-11-01T11:21:02.670Z,12.73
2022-11-01T11:23:34.172Z,13.01
2022-11-01T11:26:23.137Z,13.01
2022-11-01T11:28:53.838Z,13.02
2022-11-01T11:31:42.192Z,13.03
2022-11-01T11:34:25.116Z,13.04
2022-11-01T11:36:55.265Z,13.06
2022-11-01T11:39:29.818Z,13.06
2022-11-01T11:42:12.497Z,13.08
2022-11-01T11:44:45.527Z,13.06
2022-11-01T11:47:36.691Z,13.05
2022-11-01T11:50:22.270Z,13.05
2022-11-01T11:53:02.447Z,13.10
2022-11-01T11:55:58.419Z,13.09
2022-11-01T11:58:48.644Z,13.09
2022-11-01T12:01:23.483Z,13.10
2022-11-01T12:04:19.416Z,13.07
2022-11-01T12:06:47.196Z,13.13
2022-11-01T12:09:35.277Z,13.13
2022-11-01T12:12:07.859Z,12.63
2022-11-01T12:14:39.141Z,13.17
2022-11-01T12:17:24.350Z,13.17
2022-11-01T12:20:00.385Z,13.17
2022-11-01T12:22:33.994Z,13.19
2022-11-01T12:25:07.736Z,13.20
2022-11-01T12:27:36.440Z,13.18
2022-11-01T12:30:16.003Z,13.21
2022-11-01T12:32:51.956Z,13.22
2022-11-01T12:35:27.431Z,13.05
2022-11-01T12:38:13.427Z,13.20
2022-11-01T12:40:44.041Z,13.22
2022-11-01T12:43:47.194Z,13.22
2022-11-01T12:46:31.913Z,13.20
2022-11-01T12:49:13.281Z,13.17
2022-11-01T12:51:53.929Z,13.15
2022-11-01T12:54:44.816Z,13.22
2022-11-01T12:57:15.786Z,13.22
2022-11-01T12:59:44.497Z,13.24
2022-11-01T13:02:17.690Z,13.24
2022-11-01T13:05:00.456Z,13.21
2022-11-01T13:07:52.520Z,13.24
2022-11-01T13:10:33.610Z,13.18
2022-11-01T13:13:17.466Z,13.24
2022-11-01T13:16:05.782Z,13.22
2022-11-01T13:18:45.347Z,13.20
2022-11-01T13:21:34.702Z,13.18
2022-11-01T13:24:14.547Z,13.17
2022-11-01T13:27:06.120Z,13.15
2022-11-01T13:29:46.470Z,13.14
2022-11-01T13:32:45.103Z,13.12
2022-11-01T13:35:23.570Z,13.13
2022-11-01T13:37:59.808Z,13.14
2022-11-01T13:40:54.276Z,13.12
2022-11-01T13:43:38.617Z,13.08
2022-11-01T13:46:28.198Z,13.08
2022-11-01T13:49:10.775Z,13.08
2022-11-01T13:51:58.491Z,13.08
2022-11-01T13:54:39.429Z,13.07
2022-11-01T13:57:12.391Z,13.07
2022-11-01T13:59:45.736Z,13.06
2022-11-01T14:02:28.455Z,13.05
2022-11-01T14:05:00.713Z,13.04
2022-11-01T14:07:53.663Z,12.96
2022-11-01T14:10:20.933Z,13.03
2022-11-01T14:12:57.308Z,13.04
2022-11-01T14:15:26.102Z,13.03
2022-11-01T14:17:53.502Z,13.02
2022-11-01T14:20:20.878Z,12.99
2022-11-01T14:22:48.027Z,12.99
2022-11-01T14:25:15.405Z,12.99
2022-11-01T14:28:17.651Z,12.93
2022-11-01T14:30:49.841Z,12.98
2022-11-01T14:33:22.604Z,12.77
2022-11-01T14:35:58.168Z,13.00
2022-11-01T14:38:39.037Z,13.00
2022-11-01T14:41:08.563Z,12.98
2022-11-01T14:43:43.210Z,13.01
2022-11-01T14:46:14.171Z,13.03
2022-11-01T14:48:53.668Z,12.98
2022-11-01T14:51:39.387Z,13.01
2022-11-01T14:54:15.854Z,12.99
2022-11-01T14:56:49.834Z,12.97
2022-11-01T14:59:17.104Z,12.97
2022-11-01T15:01:46.668Z,12.94
2022-11-01T15:04:25.569Z,12.93
2022-11-01T15:06:52.671Z,12.75
2022-11-01T15:09:25.838Z,12.93
2022-11-01T15:11:56.572Z,12.93
2022-11-01T15:14:51.171Z,12.90
2022-11-01T15:17:35.345Z,12.90
2022-11-01T15:20:15.150Z,12.70
2022-11-01T15:22:43.083Z,12.79
2022-11-01T15:25:21.707Z,12.79
2022-11-01T15:27:50.603Z,12.84
2022-11-01T15:30:22.426Z,12.83
2022-11-01T15:33:13.516Z,12.81
2022-11-01T15:35:41.043Z,12.78
2022-11-01T15:38:21.231Z,12.75
2022-11-01T15:40:50.571Z,12.61
2022-11-01T15:43:27.228Z,12.76
2022-11-01T15:46:00.472Z,12.65
2022-11-01T15:48:37.032Z,12.66
2022-11-01T15:51:07.450Z,12.72
2022-11-01T15:53:35.880Z,12.70
2022-11-01T15:56:16.015Z,12.68
2022-11-01T15:58:53.139Z,12.66
2022-11-01T16:01:22.898Z,12.62
2022-11-01T16:04:01.406Z,12.63
2022-11-01T16:06:42.037Z,12.46
2022-11-01T16:09:22.605Z,12.64
2022-11-01T16:11:50.249Z,12.61
2022-11-01T16:14:36.433Z,12.50
2022-11-01T16:17:26.573Z,12.56
2022-11-01T16:19:54.107Z,12.60
2022-11-01T16:22:37.109Z,12.63
2022-11-01T16:25:07.328Z,12.61
2022-11-01T16:27:37.660Z,12.57
2022-11-01T16:30:10.554Z,12.34
2022-11-01T16:32:37.789Z,12.59
2022-11-01T16:35:33.806Z,12.59
2022-11-01T16:38:01.222Z,12.51
2022-11-01T16:40:32.824Z,12.57
2022-11-01T16:43:00.369Z,12.37
2022-11-01T16:45:33.321Z,12.41
2022-11-01T16:48:01.132Z,12.55
2022-11-01T16:50:28.856Z,12.53
2022-11-01T16:52:56.153Z,12.13
2022-11-01T16:55:26.998Z,12.30
2022-11-01T16:57:56.315Z,12.58
2022-11-01T17:00:23.554Z,12.58
2022-11-01T17:02:50.907Z,12.54
2022-11-01T17:05:21.304Z,12.50
2022-11-01T17:07:48.579Z,12.55
2022-11-01T17:10:21.965Z,12.54
2022-11-01T17:12:49.169Z,12.55
2022-11-01T17:15:16.481Z,12.50
2022-11-01T17:17:46.291Z,12.52
2022-11-01T17:20:20.372Z,12.30
2022-11-01T17:22:51.397Z,12.51
2022-11-01T17:25:22.302Z,12.57
2022-11-01T17:27:51.987Z,12.56
2022-11-01T17:30:19.942Z,12.56
2022-11-01T17:32:47.301Z,12.57
2022-11-01T17:35:15.562Z,12.57
2022-11-01T17:37:43.243Z,12.56
2022-11-01T17:40:22.586Z,12.55
2022-11-01T17:42:49.691Z,12.37
2022-11-01T17:45:17.717Z,12.54
2022-11-01T17:47:45.052Z,12.52
2022-11-01T17:50:15.569Z,12.50
2022-11-01T17:52:43.474Z,12.52
2022-11-01T17:55:12.158Z,12.53
2022-11-01T17:57:40.282Z,12.30
2022-11-01T18:00:08.455Z,12.42
2022-11-01T18:02:42.258Z,12.38
2022-11-01T18:05:09.806Z,12.44
2022-11-01T18:07:40.834Z,12.51
2022-11-01T18:10:20.268Z,12.51
2022-11-01T18:13:02.817Z,12.50
2022-11-01T18:15:43.217Z,12.40
2022-11-01T18:18:36.630Z,12.45
2022-11-01T18:21:38.991Z,12.41
2022-11-01T18:24:18.355Z,12.41
2022-11-01T18:26:49.163Z,12.26
2022-11-01T18:29:24.413Z,12.35
2022-11-01T18:32:15.262Z,12.36
2022-11-01T18:34:57.441Z,12.36
2022-11-01T18:37:39.571Z,12.27
2022-11-01T18:40:18.853Z,12.20
2022-11-01T18:42:47.760Z,12.17
2022-11-01T18:45:24.323Z,12.33
2022-11-01T18:48:02.187Z,12.34
2022-11-01T18:50:29.691Z,12.31
2022-11-01T18:53:09.016Z,12.33
2022-11-01T18:55:36.479Z,12.16
2022-11-01T18:58:22.107Z,11.79
2022-11-01T19:01:15.049Z,12.33
2022-11-01T19:03:42.927Z,12.12
2022-11-01T19:06:33.004Z,12.26
2022-11-01T19:09:09.937Z,12.33
2022-11-01T19:11:37.344Z,12.29
2022-11-01T19:14:06.642Z,12.22
2022-11-01T19:16:33.717Z,12.28
2022-11-01T19:19:00.983Z,12.35
2022-11-01T19:21:32.357Z,12.14
2022-11-01T19:24:00.666Z,12.34
2022-11-01T19:26:34.068Z,12.37
2022-11-01T19:29:01.641Z,12.27
2022-11-01T19:31:36.475Z,12.36
2022-11-01T19:34:31.564Z,12.29
2022-11-01T19:37:02.630Z,12.30
2022-11-01T19:39:31.293Z,12.41
2022-11-01T19:42:01.204Z,12.37
2022-11-01T19:44:30.852Z,12.37
2022-11-01T19:47:20.423Z,12.41
2022-11-01T19:49:47.846Z,12.40
2022-11-01T19:52:20.740Z,12.42
2022-11-01T19:54:52.717Z,12.43
2022-11-01T19:57:34.377Z,12.42
2022-11-01T20:00:22.132Z,12.37
2022-11-01T20:02:52.133Z,12.45
2022-11-01T20:05:34.787Z,12.41
2022-11-01T20:08:21.511Z,12.46
2022-11-01T20:10:48.673Z,12.47
2022-11-01T20:13:15.921Z,12.01
2022-11-01T20:15:43.227Z,12.48
2022-11-01T20:18:11.070Z,12.46
2022-11-01T20:20:44.265Z,12.19
2022-11-01T20:23:25.905Z,12.50
2022-11-01T20:25:53.835Z,12.42
2022-11-01T20:28:21.412Z,12.53
2022-11-01T20:30:48.676Z,12.36
2022-11-01T20:33:16.515Z,12.61
2022-11-01T20:35:44.212Z,12.60
2022-11-01T20:38:11.564Z,12.62
2022-11-01T20:40:38.740Z,12.35
2022-11-01T20:43:07.341Z,12.64
2022-11-01T20:45:35.409Z,12.59
2022-11-01T20:48:03.171Z,12.63
2022-11-01T20:50:30.626Z,12.67
2022-11-01T20:52:57.695Z,12.53
2022-11-01T20:55:24.800Z,12.55
2022-11-01T20:57:52.440Z,12.37
2022-11-01T21:00:19.816Z,12.66
2022-11-01T21:02:48.240Z,12.68
2022-11-01T21:05:25.857Z,12.66
2022-11-01T21:08:33.733Z,12.57
2022-11-01T21:11:10.424Z,12.66
2022-11-01T21:13:47.624Z,12.57
2022-11-01T21:16:22.925Z,12.59
2022-11-01T21:18:54.038Z,12.66
2022-11-01T21:21:27.430Z,12.05
2022-11-01T21:23:54.595Z,12.67
2022-11-01T21:26:24.887Z,12.66
2022-11-01T21:29:18.888Z,12.60
2022-11-01T21:31:46.055Z,12.67
2022-11-01T21:34:13.234Z,12.68
2022-11-01T21:36:59.123Z,12.68
2022-11-01T21:39:31.623Z,12.68
2022-11-01T21:42:04.871Z,12.68
2022-11-01T21:44:43.748Z,12.66
2022-11-01T21:47:21.185Z,12.69
2022-11-01T21:49:49.330Z,12.72
2022-11-01T21:52:19.561Z,12.70
2022-11-01T21:54:47.893Z,12.73
2022-11-01T21:57:16.614Z,12.24
2022-11-01T21:59:44.388Z,12.63
2022-11-01T22:02:13.900Z,12.72
2022-11-01T22:04:41.450Z,12.75
2022-11-01T22:07:10.547Z,12.77
2022-11-01T22:09:38.264Z,12.68
2022-11-01T22:12:07.063Z,12.78
2022-11-01T22:14:35.057Z,12.73
2022-11-01T22:17:02.478Z,12.51
2022-11-01T22:19:29.585Z,12.78
2022-11-01T22:21:56.928Z,12.55
2022-11-01T22:24:24.182Z,12.75
2022-11-01T22:26:51.374Z,12.44
2022-11-01T22:29:18.633Z,12.69
2022-11-01T22:31:45.842Z,12.73
2022-11-01T22:34:13.100Z,12.68
2022-11-01T22:36:42.133Z,12.77
2022-11-01T22:39:25.314Z,12.73
2022-11-01T22:41:54.050Z,12.18
2022-11-01T22:44:27.035Z,12.74
2022-11-01T22:46:59.109Z,12.73
2022-11-01T22:49:37.484Z,12.71
2022-11-01T22:52:18.775Z,12.45
2022-11-01T22:54:52.400Z,12.66
2022-11-01T22:57:22.201Z,12.62
2022-11-01T22:59:55.751Z,12.58
2022-11-01T23:02:29.359Z,12.52
2022-11-01T23:05:08.942Z,12.46
2022-11-01T23:07:40.467Z,12.39
2022-11-01T23:10:23.648Z,12.13
2022-11-01T23:13:20.442Z,12.19
2022-11-01T23:15:47.629Z,12.21
2022-11-01T23:18:27.939Z,12.07
2022-11-01T23:20:57.934Z,12.15
2022-11-01T23:23:25.746Z,12.17
2022-11-01T23:25:57.285Z,12.19
2022-11-01T23:28:25.191Z,12.21
2022-11-01T23:30:52.323Z,12.23
2022-11-01T23:33:21.464Z,12.25
2022-11-01T23:35:54.917Z,12.23
2022-11-01T23:38:26.983Z,12.25
2022-11-01T23:40:54.955Z,12.25
2022-11-01T23:43:27.269Z,12.25
2022-11-01T23:45:54.426Z,12.26
2022-11-01T23:48:23.144Z,12.20
2022-11-01T23:50:52.314Z,12.23
2022-11-01T23:53:22.751Z,12.22
2022-11-01T23:55:52.651Z,12.19
2022-11-01T23:58:24.710Z,12.20
